Home > Products > Valid Products > MTR

000
SAUS46 KMFR 022257
MTRSXT
METAR KSXT 022256Z AUTO 12003KT 10SM -RA FEW070 OVC085 19/05 A3004
RMK AO2 RAB18E19B23E28B46 SLP135 P0000 T01890050





000
SAUS46 KMFR 022157
MTRSXT
METAR KSXT 022156Z AUTO VRB05KT 10SM SCT090 BKN110 23/04 A3004 RMK
AO2 RAE19B35E42 SLP127 P0000 T02280044





000
SAUS46 KMFR 022057
MTRSXT
METAR KSXT 022056Z AUTO VRB04KT 10SM -RA SCT110 21/03 A3006 RMK AO2
SLP138 P0000 60000 T02060028 58004





000
SAUS46 KMFR 021957
MTRSXT
METAR KSXT 021956Z AUTO VRB04KT 10SM -RA CLR 20/04 A3007 RMK AO2
SLP142 P0000 T02000044





000
SAUS46 KMFR 021857
MTRSXT
METAR KSXT 021856Z AUTO 00000KT 10SM -RA CLR 19/05 A3007 RMK AO2
SLP144 P0000 T01890050





000
SAUS46 KMFR 021857
MTRSXT
METAR KSXT 021856Z AUTO 00000KT 10SM -RA CLR 19/05 A3007 RMK AO2
SLP144 P0000 T01890050





000
SAUS46 KMFR 021757
MTRSXT
METAR KSXT 021756Z AUTO 12005KT 10SM -RA CLR 19/05 A3007 RMK AO2
SLP139 P0000 60000 T01890050 10189 20122 51006





000
SAUS46 KMFR 021757
MTRSXT
METAR KSXT 021756Z AUTO 12005KT 10SM -RA CLR 19/05 A3007 RMK AO2
SLP139 P0000 60000 T01890050 10189 20122 51006





000
SAUS46 KMFR 021657
MTRSXT
METAR KSXT 021656Z AUTO 13006KT 10SM -RA CLR 17/03 A3006 RMK AO2
RAB18 SLP138 P0000 T01720028





000
SAUS46 KMFR 021657
MTRSXT
METAR KSXT 021656Z AUTO 13006KT 10SM -RA CLR 17/03 A3006 RMK AO2
RAB18 SLP138 P0000 T01720028





000
SAUS46 KMFR 021557
MTRSXT
METAR KSXT 021556Z AUTO VRB05KT 10SM CLR 16/01 A3006 RMK AO2 SLP140
T01610006





000
SAUS46 KMFR 021457
MTRSXT
METAR KSXT 021456Z AUTO 18004KT 10SM CLR 14/M01 A3005 RMK AO2 SLP140
T01391006 53007





000
SAUS46 KMFR 021457
MTRSXT
METAR KSXT 021456Z AUTO 18004KT 10SM CLR 14/M01 A3005 RMK AO2 SLP140
T01391006 53007





000
SAUS46 KMFR 021357
MTRSXT
METAR KSXT 021356Z AUTO 21003KT 10SM CLR 14/M02 A3004 RMK AO2 SLP133
T01391022





000
SAUS46 KMFR 021258
MTRSXT
METAR KSXT 021256Z AUTO 22004KT 10SM CLR 13/M02 A3002 RMK AO2 SLP129
T01331022





000
SAUS46 KMFR 021157
MTRSXT
METAR KSXT 021156Z AUTO 18004KT 10SM BKN100 13/M02 A3003 RMK AO2
SLP128 T01281017 10156 20122 51007





000
SAUS46 KMFR 021157
MTRSXT
METAR KSXT 021156Z AUTO 18004KT 10SM BKN100 13/M02 A3003 RMK AO2
SLP128 T01281017 10156 20122 51007





000
SAUS46 KMFR 021057
MTRSXT
METAR KSXT 021056Z AUTO 21005KT 10SM OVC100 13/M01 A3002 RMK AO2
SLP126 T01281011





000
SAUS46 KMFR 021057
MTRSXT
METAR KSXT 021056Z AUTO 21005KT 10SM OVC100 13/M01 A3002 RMK AO2
SLP126 T01281011





000
SAUS46 KMFR 020957
MTRSXT
METAR KSXT 020956Z AUTO 24005KT 10SM CLR 13/00 A3001 RMK AO2 SLP122
T01330000





000
SAUS46 KMFR 020857
MTRSXT
METAR KSXT 020856Z AUTO 31006KT 10SM CLR 13/01 A3000 RMK AO2 SLP121
T01280011 53007





000
SAUS46 KMFR 020757
MTRSXT
METAR KSXT 020756Z AUTO 25006KT 10SM CLR 13/01 A3000 RMK AO2 SLP119
T01330006 402060072





000
SAUS46 KMFR 020657
MTRSXT
METAR KSXT 020656Z AUTO 20010KT 10SM CLR 14/01 A2998 RMK AO2 SLP116
T01390011





000
SAUS46 KMFR 020557
MTRSXT
METAR KSXT 020556Z AUTO 21006KT 10SM CLR 16/00 A2998 RMK AO2 SLP117
60000 T01610000 10200 20161 51008





000
SAUS46 KMFR 020557
MTRSXT
METAR KSXT 020556Z AUTO 21006KT 10SM CLR 16/00 A2998 RMK AO2 SLP117
60000 T01610000 10200 20161 51008





000
SAUS46 KMFR 020458
MTRSXT
METAR KSXT 020456Z AUTO 10004KT 10SM CLR 17/M02 A2997 RMK AO2 SLP115
T01671017





000
SAUS46 KMFR 020357
MTRSXT
METAR KSXT 020356Z AUTO 11005KT 10SM CLR 16/M01 A2996 RMK AO2 SLP115
T01611011





000
SAUS46 KMFR 020257
MTRSXT
METAR KSXT 020256Z AUTO 10003KT 10SM CLR 17/00 A2995 RMK AO2 SLP114
60000 T01670000 55003





000
SAUS46 KMFR 020257
MTRSXT
METAR KSXT 020256Z AUTO 10003KT 10SM CLR 17/00 A2995 RMK AO2 SLP114
60000 T01670000 55003





000
SAUS46 KMFR 020157
MTRSXT
METAR KSXT 020156Z AUTO VRB04KT 10SM CLR 18/00 A2995 RMK AO2
RAB36E46 SLP116 P0000 T01780000





000
SAUS46 KMFR 020057
MTRSXT
METAR KSXT 020056Z AUTO 14008KT 10SM CLR 19/01 A2996 RMK AO2 SLP115
T01890006





000
SAUS46 KMFR 020057
MTRSXT
METAR KSXT 020056Z AUTO 14008KT 10SM CLR 19/01 A2996 RMK AO2 SLP115
T01890006





000
SAUS46 KMFR 012357
MTRSXT
METAR KSXT 012356Z AUTO 00000KT 10SM CLR 20/02 A2996 RMK AO2
RAB26E36 SLP114 P0000 60000 T02000017 10206 20139 58008





000
SAUS46 KMFR 012357
MTRSXT
METAR KSXT 012356Z AUTO 00000KT 10SM CLR 20/02 A2996 RMK AO2
RAB26E36 SLP114 P0000 60000 T02000017 10206 20139 58008





000
SAUS46 KMFR 012257
MTRSXT
METAR KSXT 012256Z AUTO VRB06G16KT 10SM CLR 20/03 A2997 RMK AO2
RAB09E42B44E54 SLP117 P0000 T02000028





000
SAUS46 KMFR 012157
MTRSXT
METAR KSXT 012156Z AUTO VRB06G20KT 10SM CLR 20/03 A2998 RMK AO2
RAE42 SLP121 P0000 T02000033





000
SAUS46 KMFR 012057
MTRSXT
METAR KSXT 012056Z AUTO 11008G17KT 080V150 10SM -RA CLR 19/03 A2999
RMK AO2 SLP125 P0000 60000 T01890033 56006





000
SAUS46 KMFR 011957
MTRSXT
METAR KSXT 011956Z AUTO 10SM -RA CLR 18/05 A2999 RMK AO2 SLP125
P0000 T01830050





000
SAUS46 KMFR 011857
MTRSXT
METAR KSXT 011856Z AUTO 10SM -RA CLR 17/05 A3001 RMK AO2 RAE27B31
SLP139 P0000 T01670050





000
SAUS46 KMFR 011757
MTRSXT
METAR KSXT 011756Z AUTO VRB05KT 10SM -RA CLR 14/04 A3001 RMK AO2
RAB06E27B45 SLP146 P0000 60000 T01390039 10139 20072 56010





000
SAUS46 KMFR 011658
MTRSXT
METAR KSXT 011656Z AUTO 10SM CLR 13/04 A3001 RMK AO2 RAB23E29 SLP150
P0000 T01280044





000
SAUS46 KMFR 011557
MTRSXT
METAR KSXT 011556Z AUTO 10007KT 050V130 10SM CLR 12/03 A3003 RMK AO2
RAB46E55 SLP156 P0000 T01170033





000
SAUS46 KMFR 011457
MTRSXT
METAR KSXT 011456Z AUTO VRB04KT 10SM CLR 10/03 A3004 RMK AO2
RAB46E51 SLP162 P0000 60000 T01000028 56008





000
SAUS46 KMFR 011357
MTRSXT
METAR KSXT 011356Z AUTO VRB03KT 10SM CLR 08/01 A3005 RMK AO2 SLP166
T00780006





000
SAUS46 KMFR 011300
MTRMHS
METAR KMHS 011256Z AUTO 07003KT 10SM CLR 03/00 A3005 RMK AO2 SLP186
T00280000





000
SAUS46 KMFR 011300
MTRMHS
METAR KMHS 011256Z AUTO 07003KT 10SM CLR 03/00 A3005 RMK AO2 SLP186
T00280000





000
SAUS46 KMFR 011257
MTRSXT
METAR KSXT 011256Z AUTO 10005KT 10SM CLR 07/M01 A3005 RMK AO2 SLP166
T00721006





000
SAUS46 KMFR 011257
MTRSXT
METAR KSXT 011256Z AUTO 10005KT 10SM CLR 07/M01 A3005 RMK AO2 SLP166
T00721006





000
SAUS46 KMFR 011157
MTRSXT
METAR KSXT 011156Z AUTO 07005KT 10SM CLR 08/M01 A3007 RMK AO2 SLP167
T00831006 10089 20061 58012





000
SAUS46 KMFR 011157
MTRSXT
METAR KSXT 011156Z AUTO 07005KT 10SM CLR 08/M01 A3007 RMK AO2 SLP167
T00831006 10089 20061 58012





000
SAUS46 KMFR 011057
MTRSXT
METAR KSXT 011056Z AUTO 07009G15KT 10SM CLR 09/00 A3008 RMK AO2
SLP169 T00890000





000
SAUS46 KMFR 010957
MTRSXT
METAR KSXT 010956Z AUTO 07008G16KT 10SM CLR 09/01 A3010 RMK AO2
SLP174 T00890011





000
SAUS46 KMFR 010857
MTRSXT
METAR KSXT 010856Z AUTO 08007KT 10SM CLR 09/02 A3011 RMK AO2 SLP180
T00890022 58013





000
SAUS46 KMFR 010757
MTRSXT
METAR KSXT 010756Z AUTO 06015G19KT 10SM CLR 09/03 A3013 RMK AO2
SLP191 T00890033 401280022





000
SAUS46 KMFR 010657
MTRSXT
METAR KSXT 010656Z AUTO 03012KT 10SM CLR 07/05 A3014 RMK AO2 SLP203
T00670050





000
SAUS46 KMFR 010557
MTRSXT
METAR KSXT 010556Z AUTO 36012KT 10SM CLR 06/05 A3015 RMK AO2 SLP210
T00610050 10117 20061 58001





000
SAUS46 KMFR 010457
MTRSXT
METAR KSXT 010456Z AUTO 34012KT 10SM CLR 06/04 A3015 RMK AO2 SLP213
T00610044





000
SAUS46 KMFR 010457
MTRSXT
METAR KSXT 010456Z AUTO 34012KT 10SM CLR 06/04 A3015 RMK AO2 SLP213
T00610044





000
SAUS46 KMFR 010357
MTRSXT
METAR KSXT 010356Z AUTO 34009G17KT 10SM CLR 07/04 A3015 RMK AO2
SLP216 T00670044





000
SAUS46 KMFR 010257
MTRSXT
METAR KSXT 010256Z AUTO 34010G21KT 300V010 10SM CLR 08/04 A3015 RMK
AO2 SLP213 T00780044 53001





000
SAUS46 KMFR 010200
MTRMHS
METAR KMHS 010156Z AUTO 00000KT 10SM CLR 17/01 A3005 RMK AO2 SLP181
T01720006





000
SAUS46 KMFR 010200
MTRMHS
METAR KMHS 010156Z AUTO 00000KT 10SM CLR 17/01 A3005 RMK AO2 SLP181
T01720006





000
SAUS46 KMFR 010157
MTRSXT
METAR KSXT 010156Z AUTO 35008G20KT 10SM CLR 09/06 A3015 RMK AO2
SLP210 T00940056





000
SAUS46 KMFR 010057
MTRSXT
METAR KSXT 010056Z AUTO 10SM CLR 11/06 A3015 RMK AO2 SLP208
T01060061





000
SAUS46 KMFR 010057
MTRSXT
METAR KSXT 010056Z AUTO 10SM CLR 11/06 A3015 RMK AO2 SLP208
T01060061





000
SAUS46 KMFR 302357
MTRSXT
METAR KSXT 302356Z AUTO VRB04KT 10SM CLR 12/06 A3015 RMK AO2 SLP207
60000 T01170061 10128 20056 58010





000
SAUS46 KMFR 302257
MTRSXT
METAR KSXT 302256Z AUTO VRB06KT 10SM CLR 12/07 A3016 RMK AO2 SLP210
T01220067





000
SAUS46 KMFR 302200
MTRMHS
METAR KMHS 302156Z AUTO 29007G16KT 250V350 10SM FEW070 17/02 A3008
RMK AO2 SLP195 T01670022





000
SAUS46 KMFR 302157
MTRSXT
METAR KSXT 302156Z AUTO VRB04KT 10SM CLR 12/06 A3018 RMK AO2 SLP215
T01170056





000
SAUS46 KMFR 302058
MTRSXT
METAR KSXT 302056Z AUTO 01007KT 310V050 10SM CLR 11/06 A3018 RMK AO2
RAB15E17 SLP218 P0000 60000 T01110056 58008





000
SAUS46 KMFR 302058
MTRSXT
METAR KSXT 302056Z AUTO 01007KT 310V050 10SM CLR 11/06 A3018 RMK AO2
RAB15E17 SLP218 P0000 60000 T01110056 58008





000
SAUS46 KMFR 302000
MTRMHS
METAR KMHS 301956Z AUTO VRB05KT 10SM CLR 16/02 A3011 RMK AO2 SLP205
T01560022





000
SAUS46 KMFR 301957
MTRSXT
METAR KSXT 301956Z AUTO VRB06KT 10SM CLR 09/04 A3019 RMK AO2 SLP223
T00940044





000
SAUS46 KMFR 301957
MTRSXT
METAR KSXT 301956Z AUTO VRB06KT 10SM CLR 09/04 A3019 RMK AO2 SLP223
T00940044





000
SAUS46 KMFR 301857
MTRSXT
METAR KSXT 301856Z AUTO VRB06KT 10SM FEW013 08/04 A3021 RMK AO2
SLP232 T00780039





000
SAUS46 KMFR 301806
MTRSXT
SPECI KSXT 301805Z AUTO VRB06KT 10SM BKN010 06/03 A3021 RMK AO2 CIG
008V015 T00560033





000
SAUS46 KMFR 301800
MTRMHS
METAR KMHS 301756Z AUTO 32009G19KT 280V020 10SM CLR 12/02 A3015 RMK
AO2 SLP223 T01170022 10122 20044 58003





000
SAUS46 KMFR 301757
MTRSXT
METAR KSXT 301756Z AUTO VRB05KT 10SM OVC009 06/04 A3021 RMK AO2 CIG
007V015 SLP237 60000 T00560039 10061 20022 58004





000
SAUS46 KMFR 301757
MTRSXT
METAR KSXT 301756Z AUTO VRB05KT 10SM OVC009 06/04 A3021 RMK AO2 CIG
007V015 SLP237 60000 T00560039 10061 20022 58004





000
SAUS46 KMFR 301700
MTRMHS
METAR KMHS 301656Z AUTO VRB06KT 10SM SCT026 BKN034 10/02 A3016 RMK
AO2 SLP228 T01000017





000
SAUS46 KMFR 301657
MTRSXT
METAR KSXT 301656Z AUTO 02007KT 340V040 10SM OVC007 05/04 A3022 RMK
AO2 RAB10E21 SLP241 P0000 T00500039





000
SAUS46 KMFR 301657
MTRSXT
METAR KSXT 301656Z AUTO 02007KT 340V040 10SM OVC007 05/04 A3022 RMK
AO2 RAB10E21 SLP241 P0000 T00500039





000
SAUS46 KMFR 301635
MTRSXT
SPECI KSXT 301634Z AUTO 02008KT 3SM BR OVC007 04/03 A3022 RMK AO2
RAB10E21 P0000 T00390028





000
SAUS46 KMFR 301633
MTRSXT
SPECI KSXT 301632Z AUTO 03008KT 1 1/2SM BR BKN003 OVC007 04/03 A3022
RMK AO2 VIS 1/2V5 RAB10E21 P0000 T00390033





000
SAUS46 KMFR 301620
MTRSXT
SPECI KSXT 301619Z AUTO 03004KT 3/4SM -RA BR VV003 03/03 A3022 RMK
AO2 RAB10 P0000 T00330028





000
SAUS46 KMFR 301620
MTRSXT
SPECI KSXT 301619Z AUTO 03004KT 3/4SM -RA BR VV003 03/03 A3022 RMK
AO2 RAB10 P0000 T00330028





000
SAUS46 KMFR 301600
MTRMHS
METAR KMHS 301556Z AUTO VRB03KT 10SM OVC027 08/02 A3016 RMK AO2
SLP231 T00780017





000
SAUS46 KMFR 301557
MTRSXT
METAR KSXT 301556Z AUTO VRB04KT 1/4SM FG VV002 03/03 A3022 RMK AO2
SLP245 T00330028





000
SAUS46 KMFR 301557
MTRSXT
METAR KSXT 301556Z AUTO VRB04KT 1/4SM FG VV002 03/03 A3022 RMK AO2
SLP245 T00330028





000
SAUS46 KMFR 301552
MTRSXT
SPECI KSXT 301551Z AUTO VRB06KT 1/4SM FG VV002 03/03 A3023 RMK AO2





000
SAUS46 KMFR 301522
MTRSXT
SPECI KSXT 301521Z AUTO VRB05G14KT 3/4SM BR OVC002 03/02 A3022 RMK
AO2 T00280022





000
SAUS46 KMFR 301516
MTRSXT
SPECI KSXT 301515Z AUTO 02008G19KT 1 3/4SM BR BKN002 OVC006 02/02
A3022 RMK AO2 VIS 3/4V5 T00220017





000
SAUS46 KMFR 301510
MTRSXT
SPECI KSXT 301509Z AUTO 02009G19KT 330V050 3/4SM BR BKN002 OVC007
02/02 A3022 RMK AO2 T00220022





000
SAUS46 KMFR 301500
MTRMHS
METAR KMHS 301456Z AUTO 10SM SCT019 OVC027 06/01 A3016 RMK AO2
SLP231 T00610011 51007





000
SAUS46 KMFR 301457
MTRSXT
METAR KSXT 301456Z AUTO 36007KT 1/4SM FG VV002 03/03 A3022 RMK AO2
SLP240 T00330028 53003





000
SAUS46 KMFR 301400
MTRMHS
METAR KMHS 301356Z AUTO 00000KT 10SM SCT019 OVC027 06/01 A3015 RMK
AO2 SLP227 T00560011





000
SAUS46 KMFR 301400
MTRMHS
METAR KMHS 301356Z AUTO 00000KT 10SM SCT019 OVC027 06/01 A3015 RMK
AO2 SLP227 T00560011





000
SAUS46 KMFR 301357
MTRSXT
METAR KSXT 301356Z AUTO 35007KT 1/4SM FG BKN003 OVC010 02/02 A3022
RMK AO2 SLP240 T00220017





000
SAUS46 KMFR 301328
MTRSXT
SPECI KSXT 301327Z AUTO VRB06KT 1/4SM FG VV002 02/02 A3021 RMK AO2
T00220017





000
SAUS46 KMFR 301312
MTRSXT
SPECI KSXT 301311Z AUTO VRB05KT 1/2SM FG VV003 02/02 A3021 RMK AO2
T00220022





000
SAUS46 KMFR 301304
MTRSXT
SPECI KSXT 301303Z AUTO 36008KT 320V030 1/4SM FG VV002 02/02 A3021
RMK AO2 T00220022





000
SAUS46 KMFR 301304
MTRSXT
SPECI KSXT 301303Z AUTO 36008KT 320V030 1/4SM FG VV002 02/02 A3021
RMK AO2 T00220022





000
SAUS46 KMFR 301258
MTRSXT
METAR KSXT 301256Z AUTO 01008G17KT 1/2SM FG VV002 02/02 A3021 RMK
AO2 SLP237 T00220017





000
SAUS46 KMFR 301246
MTRSXT
SPECI KSXT 301245Z AUTO 01008G15KT 330V030 1/2SM FG VV002 02/02
A3020 RMK AO2 T00220022





000
SAUS46 KMFR 301237
MTRMHS
SPECI KMHS 301233Z AUTO VRB03KT 10SM BKN019 BKN025 BKN032 05/00
A3014 RMK AO2 T00500000





000
SAUS46 KMFR 301237
MTRMHS
SPECI KMHS 301233Z AUTO VRB03KT 10SM BKN019 BKN025 BKN032 05/00
A3014 RMK AO2 T00500000





000
SAUS46 KMFR 301226
MTRSXT
SPECI KSXT 301224Z AUTO 36007KT 320V030 1/4SM FG VV002 02/02 A3021
RMK AO2 T00220022





000
SAUS46 KMFR 301157
MTRSXT
METAR KSXT 301156Z AUTO VRB05KT 1/2SM FG VV002 03/02 A3021 RMK AO2
SLP236 70005 T00280022 10039 20022 55003





000
SAUS46 KMFR 301141
MTRSXT
SPECI KSXT 301140Z AUTO VRB04KT 1/4SM FG VV002 02/02 A3021 RMK AO2
T00220022





000
SAUS46 KMFR 301141
MTRSXT
SPECI KSXT 301140Z AUTO VRB04KT 1/4SM FG VV002 02/02 A3021 RMK AO2
T00220022





000
SAUS46 KMFR 301124
MTRSXT
SPECI KSXT 301123Z AUTO VRB04G15KT 1/2SM FG VV002 02/02 A3021 RMK
AO2 T00220022





000
SAUS46 KMFR 301106
MTRSXT
SPECI KSXT 301104Z AUTO VRB05G16KT 1/4SM FG BKN002 OVC007 02/02
A3020 RMK AO2 T00220022





000
SAUS46 KMFR 301058
MTRSXT
METAR KSXT 301056Z AUTO 36008G15KT 1/2SM FG VV003 02/02 A3020 RMK
AO2 SLP235 T00220022





000
SAUS46 KMFR 301053
MTRSXT
SPECI KSXT 301052Z AUTO 02008G17KT 3/4SM BR OVC003 02/02 A3020 RMK
AO2





000
SAUS46 KMFR 301053
MTRSXT
SPECI KSXT 301052Z AUTO 02008G17KT 3/4SM BR OVC003 02/02 A3020 RMK
AO2





000
SAUS46 KMFR 301051
MTRSXT
SPECI KSXT 301050Z AUTO 01007G17KT 1 1/4SM BR OVC005 02/02 A3020 RMK
AO2 VIS 1/2V5





000
SAUS46 KMFR 301049
MTRSXT
SPECI KSXT 301048Z AUTO 02009G19KT 2 1/2SM BR OVC005 02/02 A3020 RMK
AO2 VIS 3/4V5 T00220017





000
SAUS46 KMFR 301043
MTRSXT
SPECI KSXT 301042Z AUTO 02011G19KT 4SM BR BKN002 OVC007 02/02 A3020
RMK AO2 T00220017





000
SAUS46 KMFR 301041
MTRSXT
SPECI KSXT 301040Z AUTO 03014G19KT 1 3/4SM BR OVC005 02/02 A3020 RMK
AO2 T00220017





000
SAUS46 KMFR 301041
MTRSXT
SPECI KSXT 301040Z AUTO 03014G19KT 1 3/4SM BR OVC005 02/02 A3020 RMK
AO2 T00220017





000
SAUS46 KMFR 300957
MTRSXT
METAR KSXT 300956Z AUTO 01009KT 1/2SM FG VV002 03/02 A3021 RMK AO2
SLP237 T00280022





000
SAUS46 KMFR 300857
MTRSXT
METAR KSXT 300856Z AUTO 00000KT 1/4SM FG VV002 03/03 A3022 RMK AO2
SLP232 T00330028 53009





000
SAUS46 KMFR 300757
MTRSXT
METAR KSXT 300756Z AUTO 00000KT 1/4SM FG VV002 03/03 A3021 RMK AO2
SLP231 T00330033 400940033





000
SAUS46 KMFR 300657
MTRSXT
METAR KSXT 300656Z AUTO 00000KT 1/4SM FG VV002 04/04 A3019 RMK AO2
SLP228 T00390039





000
SAUS46 KMFR 300557
MTRSXT
METAR KSXT 300556Z AUTO 00000KT 1/4SM FG VV002 04/04 A3019 RMK AO2
SLP230 60005 T00390039 10083 20039 51012





000
SAUS46 KMFR 300457
MTRSXT
METAR KSXT 300456Z AUTO 00000KT 1/4SM FG VV002 04/04 A3018 RMK AO2
RAE19 SLP227 P0001 T00440039





000
SAUS46 KMFR 300445
MTRSXT
SPECI KSXT 300444Z AUTO 00000KT 1/4SM FG VV002 04/04 A3018 RMK AO2
RAE19 P0001 T00440039





000
SAUS46 KMFR 300445
MTRSXT
SPECI KSXT 300444Z AUTO 00000KT 1/4SM FG VV002 04/04 A3018 RMK AO2
RAE19 P0001 T00440039





000
SAUS46 KMFR 300357
MTRSXT
METAR KSXT 300356Z AUTO VRB05KT 1/2SM -RA FG VV002 04/04 A3017 RMK
AO2 SLP221 P0004 T00440039





000
SAUS46 KMFR 300348
MTRSXT
SPECI KSXT 300347Z AUTO 36005KT 1/2SM -RA FG BKN003 OVC008 04/04
A3016 RMK AO2 P0003 T00440039





000
SAUS46 KMFR 300340
MTRSXT
SPECI KSXT 300339Z AUTO VRB06KT 1 1/4SM -RA BR BKN003 OVC009 04/04
A3016 RMK AO2 P0002 T00440044





000
SAUS46 KMFR 300308
MTRSXT
SPECI KSXT 300307Z AUTO VRB03KT 10SM -RA BKN009 OVC016 05/04 A3015
RMK AO2 P0000 T00500044





000
SAUS46 KMFR 300258
MTRSXT
METAR KSXT 300256Z AUTO VRB03KT 10SM -RA BKN010 BKN016 OVC028 06/04
A3015 RMK AO2 RAB44 CIG 007V013 SLP215 P0000 60000 T00560039 53008





000
SAUS46 KMFR 300253
MTRSXT
SPECI KSXT 300252Z AUTO 00000KT 10SM -RA FEW007 BKN010 OVC028 06/04
A3015 RMK AO2 RAB44 P0000





000
SAUS46 KMFR 300210
MTRSXT
SPECI KSXT 300209Z AUTO 00000KT 10SM FEW010 SCT016 BKN023 06/04
A3014 RMK AO2 T00560039





000
SAUS46 KMFR 300157
MTRSXT
METAR KSXT 300156Z AUTO 00000KT 10SM BKN012 BKN022 OVC035 06/04
A3013 RMK AO2 SLP210 T00610039





000
SAUS46 KMFR 300145
MTRSXT
SPECI KSXT 300144Z AUTO VRB03KT 10SM FEW012 SCT016 BKN024 07/04
A3013 RMK AO2 T00720044





000
SAUS46 KMFR 300057
MTRSXT
METAR KSXT 300056Z AUTO 00000KT 10SM FEW013 SCT031 BKN048 07/04
A3013 RMK AO2 RAE06 SLP204 P0000 T00670044





000
SAUS46 KMFR 300012
MTRSXT
SPECI KSXT 300010Z AUTO VRB05KT 10SM FEW008 SCT024 SCT032 07/05
A3012 RMK AO2 RAE06 P0000 T00720050





000
SAUS46 KMFR 300012
MTRSXT
SPECI KSXT 300010Z AUTO VRB05KT 10SM FEW008 SCT024 SCT032 07/05
A3012 RMK AO2 RAE06 P0000 T00720050





000
SAUS46 KMFR 292357
MTRSXT
METAR KSXT 292356Z AUTO VRB04KT 10SM -RA FEW008 BKN027 OVC035 07/05
A3012 RMK AO2 RAE01B29 SLP202 P0000 60000 T00720050 10094 20061
50000





000
SAUS46 KMFR 292357
MTRSXT
METAR KSXT 292356Z AUTO VRB04KT 10SM -RA FEW008 BKN027 OVC035 07/05
A3012 RMK AO2 RAE01B29 SLP202 P0000 60000 T00720050 10094 20061
50000





000
SAUS46 KMFR 292352
MTRSXT
SPECI KSXT 292351Z AUTO VRB03KT 10SM -RA FEW008 BKN027 BKN033 07/05
A3012 RMK AO2 RAE01B29 P0000





    US Dept of Commerce
    National Oceanic and Atmospheric Administration
    National Weather Service
    1325 East West Highway
    Silver Spring, MD 20910
    Page Author: NWS Internet Services Team
Disclaimer
Information Quality
Credits
Glossary
Privacy Policy
Freedom of Information Act (FOIA)
About Us
Career Opportunities